createdAt,value
2022-12-01T00:01:41.447Z,102801.19
2022-12-01T00:04:07.956Z,102800.28
2022-12-01T00:06:34.341Z,102803.84
2022-12-01T00:09:20.283Z,102791.78
2022-12-01T00:11:47.062Z,102789.25
2022-12-01T00:14:13.551Z,102794.53
2022-12-01T00:16:41.163Z,102791.19
2022-12-01T00:19:08.721Z,102786.88
2022-12-01T00:21:35.409Z,102786.06
2022-12-01T00:24:07.981Z,102792.28
2022-12-01T00:26:34.508Z,102794.06
2022-12-01T00:29:00.844Z,102794.94
2022-12-01T00:31:28.060Z,102802.06
2022-12-01T00:33:55.154Z,102803.03
2022-12-01T00:36:21.788Z,102798.69
2022-12-01T00:38:54.373Z,102799.59
2022-12-01T00:41:23.584Z,102797.91
2022-12-01T00:43:50.240Z,102794.47
2022-12-01T00:46:16.971Z,102790.22
2022-12-01T00:48:43.423Z,102806.81
2022-12-01T00:51:09.856Z,102797.22
2022-12-01T00:53:36.190Z,102792.88
2022-12-01T00:56:02.531Z,102798.13
2022-12-01T00:58:28.867Z,102797.16
2022-12-01T01:01:01.147Z,102800.75
2022-12-01T01:03:28.748Z,102795.50
2022-12-01T01:05:55.169Z,102797.31
2022-12-01T01:08:21.650Z,102799.94
2022-12-01T01:10:48.426Z,102789.47
2022-12-01T01:13:17.939Z,102805.16
2022-12-01T01:15:44.456Z,102794.72
2022-12-01T01:18:12.425Z,102796.25
2022-12-01T01:20:38.973Z,102803.28
2022-12-01T01:23:05.323Z,102808.59
2022-12-01T01:25:32.692Z,102808.59
2022-12-01T01:27:59.220Z,102803.34
2022-12-01T01:30:25.592Z,102812.03
2022-12-01T01:32:52.036Z,102818.25
2022-12-01T01:35:18.487Z,102808.59
2022-12-01T01:37:44.899Z,102813.81
2022-12-01T01:40:11.727Z,102817.34
2022-12-01T01:42:38.126Z,102816.53
2022-12-01T01:45:05.377Z,102818.31
2022-12-01T01:47:37.841Z,102815.63
2022-12-01T01:50:14.529Z,102823.47
2022-12-01T01:52:48.101Z,102817.41
2022-12-01T01:55:14.980Z,102806.41
2022-12-01T01:57:43.516Z,102817.41
2022-12-01T02:00:15.158Z,102814.00
2022-12-01T02:02:44.079Z,102812.19
2022-12-01T02:05:26.555Z,102818.97
2022-12-01T02:07:54.914Z,102812.91
2022-12-01T02:10:29.923Z,102806.56
2022-12-01T02:13:04.439Z,102802.31
2022-12-01T02:15:43.774Z,102806.66
2022-12-01T02:18:13.083Z,102801.41
2022-12-01T02:21:15.045Z,102797.91
2022-12-01T02:23:44.400Z,102800.28
2022-12-01T02:26:29.449Z,102808.03
2022-12-01T02:29:23.399Z,102816.84
2022-12-01T02:32:25.312Z,102822.09
2022-12-01T02:35:01.788Z,102789.09
2022-12-01T02:37:37.347Z,102813.78
2022-12-01T02:40:16.443Z,102809.81
2022-12-01T02:43:08.509Z,102806.16
2022-12-01T02:45:47.111Z,102808.44
2022-12-01T02:48:24.020Z,102803.13
2022-12-01T02:50:53.276Z,102803.97
2022-12-01T02:53:21.120Z,102804.84
2022-12-01T02:55:53.666Z,102815.47
2022-12-01T02:58:21.000Z,102812.84
2022-12-01T03:01:07.152Z,102810.22
2022-12-01T03:03:54.912Z,102818.00
2022-12-01T03:06:37.474Z,102809.97
2022-12-01T03:09:43.426Z,102816.19
2022-12-01T03:12:40.533Z,102814.31
2022-12-01T03:15:23.961Z,102820.53
2022-12-01T03:18:15.770Z,102808.28
2022-12-01T03:20:50.947Z,102791.22
2022-12-01T03:23:25.286Z,102811.81
2022-12-01T03:25:54.989Z,102807.47
2022-12-01T03:28:28.797Z,102803.22
2022-12-01T03:30:59.409Z,102807.56
2022-12-01T03:33:33.013Z,102809.34
2022-12-01T03:36:15.075Z,102810.22
2022-12-01T03:38:46.751Z,102807.56
2022-12-01T03:41:18.199Z,102808.44
2022-12-01T03:44:16.905Z,102816.28
2022-12-01T03:46:51.931Z,102811.69
2022-12-01T03:49:19.728Z,102814.31
2022-12-01T03:52:28.668Z,102816.94
2022-12-01T03:55:11.908Z,102809.03
2022-12-01T03:57:44.051Z,102810.72
2022-12-01T04:00:11.548Z,102806.47
2022-12-01T04:02:38.238Z,102816.13
2022-12-01T04:05:06.068Z,102803.81
2022-12-01T04:07:32.552Z,102815.31
2022-12-01T04:09:59.169Z,102808.19
2022-12-01T04:12:32.978Z,102809.91
2022-12-01T04:15:02.474Z,102820.38
2022-12-01T04:17:29.793Z,102801.81
2022-12-01T04:19:56.405Z,102814.97
2022-12-01T04:22:24.269Z,102808.88
2022-12-01T04:24:50.825Z,102800.09
2022-12-01T04:27:17.372Z,102804.53
2022-12-01T04:29:43.869Z,102794.09
2022-12-01T04:32:10.266Z,102794.88
2022-12-01T04:34:36.664Z,102805.25
2022-12-01T04:37:07.608Z,102806.72
2022-12-01T04:39:34.501Z,102814.47
2022-12-01T04:42:01.026Z,102809.75
2022-12-01T04:44:33.002Z,102812.16
2022-12-01T04:47:01.448Z,102808.16
2022-12-01T04:49:27.863Z,102807.00
2022-12-01T04:51:54.398Z,102818.91
2022-12-01T04:54:20.800Z,102824.03
2022-12-01T04:56:47.197Z,102811.66
2022-12-01T04:59:13.864Z,102811.38
2022-12-01T05:01:40.522Z,102819.94
2022-12-01T05:04:07.301Z,102802.78
2022-12-01T05:06:33.939Z,102821.28
2022-12-01T05:09:01.649Z,102825.56
2022-12-01T05:11:30.803Z,102828.88
2022-12-01T05:13:57.311Z,102840.06
2022-12-01T05:16:27.283Z,102837.06
2022-12-01T05:19:14.663Z,102835.94
2022-12-01T05:21:42.450Z,102838.34
2022-12-01T05:24:10.178Z,102841.78
2022-12-01T05:26:36.743Z,102844.94
2022-12-01T05:29:04.005Z,102842.22
2022-12-01T05:31:31.113Z,102830.53
2022-12-01T05:33:57.561Z,102837.38
2022-12-01T05:36:24.207Z,102843.31
2022-12-01T05:38:53.095Z,102837.03
2022-12-01T05:41:19.501Z,102837.03
2022-12-01T05:43:46.039Z,102837.91
2022-12-01T05:46:12.616Z,102838.81
2022-12-01T05:48:39.360Z,102835.22
2022-12-01T05:51:14.714Z,102833.41
2022-12-01T05:53:41.758Z,102825.50
2022-12-01T05:56:08.533Z,102824.94
2022-12-01T05:58:35.940Z,102822.44
2022-12-01T06:01:03.049Z,102827.81
2022-12-01T06:03:32.294Z,102826.22
2022-12-01T06:05:58.626Z,102819.22
2022-12-01T06:08:25.182Z,102824.31
2022-12-01T06:10:51.626Z,102838.38
2022-12-01T06:13:18.043Z,102838.09
2022-12-01T06:15:44.498Z,102835.59
2022-12-01T06:18:10.982Z,102835.59
2022-12-01T06:20:37.328Z,102833.06
2022-12-01T06:23:03.828Z,102838.09
2022-12-01T06:25:30.172Z,102843.22
2022-12-01T06:27:58.144Z,102837.03
2022-12-01T06:30:25.104Z,102849.25
2022-12-01T06:32:51.713Z,102844.84
2022-12-01T06:35:18.291Z,102851.03
2022-12-01T06:37:44.811Z,102851.03
2022-12-01T06:40:11.763Z,102846.63
2022-12-01T06:42:38.311Z,102847.47
2022-12-01T06:45:05.376Z,102853.47
2022-12-01T06:47:31.726Z,102842.84
2022-12-01T06:49:58.064Z,102848.72
2022-12-01T06:52:24.504Z,102844.00
2022-12-01T06:54:51.162Z,102847.25
2022-12-01T06:57:18.197Z,102871.47
2022-12-01T06:59:45.226Z,102870.28
2022-12-01T07:02:12.104Z,102870.97
2022-12-01T07:04:38.652Z,102882.28
2022-12-01T07:07:06.208Z,102886.50
2022-12-01T07:09:32.648Z,102886.41
2022-12-01T07:11:59.162Z,102879.31
2022-12-01T07:14:27.121Z,102883.53
2022-12-01T07:16:54.251Z,102884.16
2022-12-01T07:19:20.718Z,102882.28
2022-12-01T07:21:49.199Z,102887.38
2022-12-01T07:24:16.228Z,102889.81
2022-12-01T07:26:43.259Z,102888.09
2022-12-01T07:29:10.791Z,102893.41
2022-12-01T07:31:38.132Z,102894.38
2022-12-01T07:34:05.202Z,102897.09
2022-12-01T07:36:31.640Z,102894.66
2022-12-01T07:38:57.984Z,102898.16
2022-12-01T07:41:24.560Z,102905.03
2022-12-01T07:43:54.994Z,102908.59
2022-12-01T07:46:24.842Z,102906.81
2022-12-01T07:48:52.507Z,102905.22
2022-12-01T07:51:22.309Z,102914.09
2022-12-01T07:53:50.436Z,102910.59
2022-12-01T07:56:20.250Z,102911.69
2022-12-01T07:58:47.025Z,102904.75
2022-12-01T08:01:16.664Z,102917.22
2022-12-01T08:03:43.602Z,102921.91
2022-12-01T08:06:10.803Z,102926.41
2022-12-01T08:08:39.832Z,102927.69
2022-12-01T08:11:14.794Z,102926.25
2022-12-01T08:13:44.130Z,102927.41
2022-12-01T08:16:13.278Z,102931.13
2022-12-01T08:18:40.910Z,102934.91
2022-12-01T08:21:09.415Z,102939.59
2022-12-01T08:23:35.873Z,102934.56
2022-12-01T08:26:08.148Z,102934.84
2022-12-01T08:28:37.312Z,102929.06
2022-12-01T08:31:12.610Z,102937.06
2022-12-01T08:33:39.263Z,102925.75
2022-12-01T08:36:06.386Z,102932.94
2022-12-01T08:38:33.325Z,102931.59
2022-12-01T08:41:06.186Z,102929.31
2022-12-01T08:44:02.091Z,102927.88
2022-12-01T08:46:19.414Z,102935.28
2022-12-01T08:48:46.356Z,102932.94
2022-12-01T08:51:18.521Z,102936.88
2022-12-01T08:53:47.689Z,102933.88
2022-12-01T08:56:16.233Z,102930.16
2022-12-01T08:58:43.235Z,102931.50
2022-12-01T09:01:12.086Z,102917.13
2022-12-01T09:03:39.789Z,102928.38
2022-12-01T09:06:12.953Z,102914.44
2022-12-01T09:08:39.904Z,102920.06
2022-12-01T09:11:15.528Z,102926.50
2022-12-01T09:13:43.025Z,102923.69
2022-12-01T09:16:15.620Z,102913.97
2022-12-01T09:18:43.153Z,102917.72
2022-12-01T09:21:13.536Z,102924.44
2022-12-01T09:23:40.271Z,102921.47
2022-12-01T09:26:13.219Z,102922.63
2022-12-01T09:28:40.084Z,102918.22
2022-12-01T09:31:11.895Z,102913.06
2022-12-01T09:33:38.701Z,102912.94
2022-12-01T09:36:07.250Z,102920.72
2022-12-01T09:38:36.223Z,102919.53
2022-12-01T09:41:07.559Z,102914.88
2022-12-01T09:43:41.507Z,102920.63
2022-12-01T09:46:13.947Z,102915.06
2022-12-01T09:48:45.197Z,102910.31
2022-12-01T09:51:26.076Z,102910.84
2022-12-01T09:53:56.557Z,102905.94
2022-12-01T09:56:32.204Z,102912.66
2022-12-01T09:59:02.425Z,102910.78
2022-12-01T10:01:36.461Z,102909.88
2022-12-01T10:04:14.881Z,102906.25
2022-12-01T10:06:53.059Z,102901.78
2022-12-01T10:09:43.528Z,102894.69
2022-12-01T10:12:15.725Z,102902.66
2022-12-01T10:14:47.608Z,102893.53
2022-12-01T10:17:16.855Z,102904.72
2022-12-01T10:19:55.444Z,102885.78
2022-12-01T10:22:46.665Z,102909.50
2022-12-01T10:25:24.399Z,102906.34
2022-12-01T10:27:59.992Z,102897.03
2022-12-01T10:30:26.669Z,102889.56
2022-12-01T10:33:02.334Z,102896.41
2022-12-01T10:35:35.983Z,102894.25
2022-12-01T10:38:06.646Z,102887.66
2022-12-01T10:40:38.268Z,102893.34
2022-12-01T10:43:04.627Z,102891.00
2022-12-01T10:45:35.821Z,102877.84
2022-12-01T10:48:20.716Z,102881.81
2022-12-01T10:50:47.289Z,102880.75
2022-12-01T10:53:22.723Z,102886.53
2022-12-01T10:56:04.903Z,102883.00
2022-12-01T10:58:46.299Z,102881.00
2022-12-01T11:01:25.281Z,102876.28
2022-12-01T11:04:04.098Z,102874.31
2022-12-01T11:06:31.437Z,102877.81
2022-12-01T11:09:03.543Z,102870.97
2022-12-01T11:11:39.772Z,102868.16
2022-12-01T11:14:18.593Z,102872.56
2022-12-01T11:16:47.851Z,102863.91
2022-12-01T11:19:14.294Z,102866.75
2022-12-01T11:21:53.410Z,102855.22
2022-12-01T11:24:40.387Z,102859.47
2022-12-01T11:27:18.284Z,102858.41
2022-12-01T11:29:50.179Z,102857.06
2022-12-01T11:32:21.169Z,102842.31
2022-12-01T11:34:51.806Z,102844.31
2022-12-01T11:37:25.736Z,102846.28
2022-12-01T11:39:52.965Z,102834.88
2022-12-01T11:42:26.616Z,102831.38
2022-12-01T11:45:18.464Z,102840.16
2022-12-01T11:48:04.850Z,102829.09
2022-12-01T11:50:35.063Z,102832.50
2022-12-01T11:53:02.142Z,102841.81
2022-12-01T11:55:30.920Z,102841.47
2022-12-01T11:58:01.630Z,102828.47
2022-12-01T12:00:34.499Z,102834.50
2022-12-01T12:03:20.208Z,102828.75
2022-12-01T12:06:40.176Z,102832.50
2022-12-01T12:09:15.549Z,102823.97
2022-12-01T12:12:04.805Z,102827.44
2022-12-01T12:14:36.861Z,102836.47
2022-12-01T12:17:26.560Z,102837.53
2022-12-01T12:20:21.688Z,102831.81
2022-12-01T12:23:09.338Z,102840.44
2022-12-01T12:25:52.987Z,102838.72
2022-12-01T12:28:56.714Z,102831.56
2022-12-01T12:31:44.926Z,102837.00
2022-12-01T12:34:55.148Z,102822.38
2022-12-01T12:37:45.435Z,102820.88
2022-12-01T12:40:54.128Z,102816.94
2022-12-01T12:43:47.086Z,102819.31
2022-12-01T12:46:36.935Z,102811.19
2022-12-01T12:49:31.284Z,102811.81
2022-12-01T12:52:18.578Z,102815.81
2022-12-01T12:55:15.138Z,102819.72
2022-12-01T12:57:55.619Z,102822.88
2022-12-01T13:00:26.274Z,102819.97
2022-12-01T13:03:20.850Z,102823.09
2022-12-01T13:05:53.937Z,102816.97
2022-12-01T13:08:41.365Z,102817.13
2022-12-01T13:11:23.644Z,102805.84
2022-12-01T13:14:02.701Z,102799.25
2022-12-01T13:16:49.399Z,102799.78
2022-12-01T13:19:20.796Z,102795.00
2022-12-01T13:21:49.875Z,102797.06
2022-12-01T13:24:23.391Z,102793.06
2022-12-01T13:26:56.441Z,102792.00
2022-12-01T13:29:25.818Z,102793.50
2022-12-01T13:31:54.449Z,102791.34
2022-12-01T13:34:37.736Z,102799.97
2022-12-01T13:37:04.349Z,102793.00
2022-12-01T13:39:36.158Z,102796.59
2022-12-01T13:42:05.232Z,102797.56
2022-12-01T13:44:39.529Z,102791.59
2022-12-01T13:47:08.627Z,102795.53
2022-12-01T13:49:44.113Z,102793.53
2022-12-01T13:52:22.449Z,102798.63
2022-12-01T13:55:01.042Z,102787.78
2022-12-01T13:57:30.422Z,102781.09
2022-12-01T13:59:59.804Z,102787.09
2022-12-01T14:02:32.814Z,102789.50
2022-12-01T14:05:27.160Z,102784.91
2022-12-01T14:07:54.434Z,102778.47
2022-12-01T14:10:31.432Z,102783.47
2022-12-01T14:13:03.392Z,102775.47
2022-12-01T14:15:31.742Z,102769.94
2022-12-01T14:18:16.676Z,102777.72
2022-12-01T14:20:48.606Z,102771.38
2022-12-01T14:23:24.163Z,102779.84
2022-12-01T14:26:14.616Z,102773.44
2022-12-01T14:28:59.867Z,102769.47
2022-12-01T14:31:32.344Z,102778.78
2022-12-01T14:34:01.642Z,102776.78
2022-12-01T14:36:57.201Z,102781.75
2022-12-01T14:39:27.719Z,102781.38
2022-12-01T14:42:00.686Z,102787.28
2022-12-01T14:44:32.963Z,102793.97
2022-12-01T14:47:12.314Z,102780.19
2022-12-01T14:49:44.512Z,102786.94
2022-12-01T14:52:17.540Z,102787.56
2022-12-01T14:54:49.262Z,102783.66
2022-12-01T14:57:20.455Z,102791.28
2022-12-01T14:59:49.476Z,102776.00
2022-12-01T15:02:17.171Z,102778.53
2022-12-01T15:05:06.861Z,102780.91
2022-12-01T15:07:48.127Z,102779.59
2022-12-01T15:10:35.524Z,102776.75
2022-12-01T15:13:22.632Z,102774.72
2022-12-01T15:15:56.658Z,102773.41
2022-12-01T15:18:39.480Z,102775.66
2022-12-01T15:21:09.751Z,102779.50
2022-12-01T15:23:36.807Z,102784.41
2022-12-01T15:26:03.992Z,102790.28
2022-12-01T15:28:33.436Z,102790.09
2022-12-01T15:31:02.038Z,102787.03
2022-12-01T15:33:37.272Z,102792.91
2022-12-01T15:36:04.503Z,102795.06
2022-12-01T15:38:37.742Z,102799.16
2022-12-01T15:41:28.981Z,102799.75
2022-12-01T15:43:57.815Z,102790.66
2022-12-01T15:46:29.806Z,102800.75
2022-12-01T15:49:16.980Z,102795.16
2022-12-01T15:51:43.755Z,102792.31
2022-12-01T15:54:19.485Z,102795.66
2022-12-01T15:56:50.004Z,102799.88
2022-12-01T15:59:26.140Z,102792.66
2022-12-01T16:01:53.247Z,102792.38
2022-12-01T16:04:23.031Z,102803.47
2022-12-01T16:07:01.847Z,102798.78
2022-12-01T16:09:41.506Z,102788.81
2022-12-01T16:12:17.473Z,102809.75
2022-12-01T16:15:15.214Z,102806.16
2022-12-01T16:17:48.826Z,102808.63
2022-12-01T16:20:30.673Z,102803.91
2022-12-01T16:23:00.704Z,102811.56
2022-12-01T16:25:45.813Z,102805.41
2022-12-01T16:28:22.072Z,102804.50
2022-12-01T16:30:52.807Z,102802.56
2022-12-01T16:33:22.925Z,102793.50
2022-12-01T16:35:50.313Z,102803.06
2022-12-01T16:38:22.832Z,102794.19
2022-12-01T16:40:52.520Z,102798.34
2022-12-01T16:43:21.703Z,102808.50
2022-12-01T16:45:52.767Z,102793.28
2022-12-01T16:48:22.876Z,102796.50
2022-12-01T16:50:50.955Z,102791.09
2022-12-01T16:53:17.973Z,102786.78
2022-12-01T16:55:49.624Z,102788.97
2022-12-01T16:58:16.019Z,102791.59
2022-12-01T17:00:42.419Z,102780.75
2022-12-01T17:03:14.524Z,102794.06
2022-12-01T17:05:40.985Z,102790.31
2022-12-01T17:08:07.512Z,102788.44
2022-12-01T17:10:34.001Z,102791.94
2022-12-01T17:13:00.486Z,102797.16
2022-12-01T17:15:26.857Z,102793.59
2022-12-01T17:17:53.335Z,102792.50
2022-12-01T17:20:22.431Z,102790.47
2022-12-01T17:22:48.920Z,102795.78
2022-12-01T17:25:15.610Z,102793.09
2022-12-01T17:27:44.018Z,102795.84
2022-12-01T17:30:11.961Z,102801.03
2022-12-01T17:32:38.399Z,102791.94
2022-12-01T17:35:05.245Z,102797.91
2022-12-01T17:37:31.784Z,102797.00
2022-12-01T17:39:58.185Z,102788.84
2022-12-01T17:42:24.635Z,102787.72
2022-12-01T17:44:51.290Z,102792.78
2022-12-01T17:47:18.272Z,102789.97
2022-12-01T17:49:44.694Z,102783.53
2022-12-01T17:52:11.208Z,102778.94
2022-12-01T17:54:38.234Z,102787.50
2022-12-01T17:57:04.844Z,102788.16
2022-12-01T17:59:31.537Z,102791.41
2022-12-01T18:01:58.065Z,102791.19
2022-12-01T18:04:24.716Z,102796.94
2022-12-01T18:06:54.579Z,102804.59
2022-12-01T18:09:21.447Z,102794.66
2022-12-01T18:11:47.914Z,102794.28
2022-12-01T18:14:17.677Z,102798.34
2022-12-01T18:16:44.600Z,102793.06
2022-12-01T18:19:11.161Z,102794.56
2022-12-01T18:21:38.644Z,102794.41
2022-12-01T18:24:05.583Z,102800.34
2022-12-01T18:26:33.435Z,102803.69
2022-12-01T18:29:06.074Z,102796.41
2022-12-01T18:31:33.069Z,102809.47
2022-12-01T18:34:03.008Z,102807.06
2022-12-01T18:36:31.402Z,102799.41
2022-12-01T18:38:59.778Z,102798.16
2022-12-01T18:41:26.868Z,102800.38
2022-12-01T18:43:53.461Z,102800.16
2022-12-01T18:46:20.933Z,102798.59
2022-12-01T18:48:52.768Z,102794.22
2022-12-01T18:51:20.664Z,102805.34
2022-12-01T18:53:47.720Z,102804.25
2022-12-01T18:56:15.420Z,102806.88
2022-12-01T18:58:42.541Z,102802.34
2022-12-01T19:01:28.185Z,102798.47
2022-12-01T19:03:55.894Z,102799.91
2022-12-01T19:06:22.959Z,102798.91
2022-12-01T19:08:49.799Z,102796.47
2022-12-01T19:11:16.762Z,102793.09
2022-12-01T19:13:43.601Z,102806.19
2022-12-01T19:16:13.051Z,102799.19
2022-12-01T19:18:40.309Z,102797.41
2022-12-01T19:21:09.476Z,102800.97
2022-12-01T19:23:39.099Z,102790.72
2022-12-01T19:26:07.701Z,102789.84
2022-12-01T19:28:35.272Z,102787.34
2022-12-01T19:31:06.974Z,102794.34
2022-12-01T19:33:33.953Z,102789.94
2022-12-01T19:36:08.673Z,102786.25
2022-12-01T19:38:35.316Z,102782.09
2022-12-01T19:41:02.075Z,102791.81
2022-12-01T19:43:28.617Z,102795.06
2022-12-01T19:45:55.356Z,102792.34
2022-12-01T19:48:21.926Z,102793.06
2022-12-01T19:50:48.318Z,102794.59
2022-12-01T19:53:14.835Z,102798.00
2022-12-01T19:55:41.326Z,102800.69
2022-12-01T19:58:07.704Z,102794.66
2022-12-01T20:00:34.243Z,102801.00
2022-12-01T20:03:01.056Z,102791.53
2022-12-01T20:05:27.483Z,102786.41
2022-12-01T20:07:53.945Z,102787.94
2022-12-01T20:10:20.621Z,102794.25
2022-12-01T20:12:47.621Z,102790.75
2022-12-01T20:15:14.614Z,102792.34
2022-12-01T20:17:41.141Z,102769.13
2022-12-01T20:20:08.232Z,102791.63
2022-12-01T20:22:35.578Z,102790.91
2022-12-01T20:25:02.549Z,102792.81
2022-12-01T20:27:29.282Z,102786.69
2022-12-01T20:29:56.012Z,102795.78
2022-12-01T20:32:23.909Z,102797.03
2022-12-01T20:34:53.379Z,102794.75
2022-12-01T20:37:19.767Z,102794.03
2022-12-01T20:39:47.347Z,102792.56
2022-12-01T20:42:13.664Z,102794.22
2022-12-01T20:44:40.335Z,102797.72
2022-12-01T20:47:06.839Z,102793.50
2022-12-01T20:49:33.219Z,102798.00
2022-12-01T20:51:59.590Z,102794.66
2022-12-01T20:54:28.876Z,102792.22
2022-12-01T20:56:58.904Z,102787.06
2022-12-01T20:59:26.086Z,102776.91
2022-12-01T21:01:52.518Z,102785.91
2022-12-01T21:04:18.994Z,102788.69
2022-12-01T21:06:45.780Z,102779.88
2022-12-01T21:09:13.218Z,102781.19
2022-12-01T21:12:06.459Z,102783.28
2022-12-01T21:14:41.101Z,102773.09
2022-12-01T21:17:32.087Z,102773.38
2022-12-01T21:20:21.529Z,102770.91
2022-12-01T21:22:50.165Z,102767.59
2022-12-01T21:25:23.445Z,102764.34
2022-12-01T21:27:50.446Z,102769.63
2022-12-01T21:30:20.848Z,102769.91
2022-12-01T21:32:50.210Z,102762.91
2022-12-01T21:35:20.068Z,102770.97
2022-12-01T21:37:47.737Z,102762.22
2022-12-01T21:40:25.888Z,102752.78
2022-12-01T21:42:52.793Z,102751.06
2022-12-01T21:45:31.835Z,102755.66
2022-12-01T21:48:08.211Z,102752.06
2022-12-01T21:50:34.655Z,102752.22
2022-12-01T21:53:01.268Z,102758.44
2022-12-01T21:55:35.357Z,102749.59
2022-12-01T21:58:02.046Z,102733.34
2022-12-01T22:00:32.532Z,102747.81
2022-12-01T22:03:11.065Z,102753.03
2022-12-01T22:06:01.028Z,102750.50
2022-12-01T22:08:35.516Z,102745.28
2022-12-01T22:11:16.308Z,102747.88
2022-12-01T22:13:51.675Z,102754.03
2022-12-01T22:16:20.856Z,102746.09
2022-12-01T22:18:54.784Z,102741.72
2022-12-01T22:21:23.913Z,102746.00
2022-12-01T22:24:00.810Z,102742.44
2022-12-01T22:26:27.484Z,102739.81
2022-12-01T22:28:58.409Z,102733.63
2022-12-01T22:31:26.036Z,102737.22
2022-12-01T22:34:00.176Z,102738.91
2022-12-01T22:36:31.598Z,102720.97
2022-12-01T22:39:01.276Z,102718.75
2022-12-01T22:41:28.712Z,102735.41
2022-12-01T22:44:00.516Z,102729.38
2022-12-01T22:46:35.353Z,102707.91
2022-12-01T22:49:10.726Z,102711.72
2022-12-01T22:51:40.030Z,102726.78
2022-12-01T22:54:09.092Z,102727.50
2022-12-01T22:56:39.927Z,102726.66
2022-12-01T22:59:33.053Z,102726.78
2022-12-01T23:02:06.113Z,102726.66
2022-12-01T23:04:38.186Z,102724.94
2022-12-01T23:07:23.710Z,102734.50
2022-12-01T23:09:50.211Z,102719.47
2022-12-01T23:12:35.861Z,102727.56
2022-12-01T23:15:27.268Z,102723.16
2022-12-01T23:17:54.122Z,102722.28
2022-12-01T23:20:20.409Z,102719.81
2022-12-01T23:22:47.547Z,102727.72
2022-12-01T23:25:18.954Z,102717.38
2022-12-01T23:27:47.656Z,102722.50
2022-12-01T23:30:16.096Z,102712.88
2022-12-01T23:32:43.752Z,102712.00
2022-12-01T23:35:18.272Z,102710.38
2022-12-01T23:37:47.411Z,102710.28
2022-12-01T23:40:28.087Z,102716.31
2022-12-01T23:42:54.687Z,102709.28
2022-12-01T23:45:27.277Z,102702.13
2022-12-01T23:47:56.427Z,102696.75
2022-12-01T23:50:32.794Z,102701.38
2022-12-01T23:52:59.138Z,102698.69
2022-12-01T23:55:31.570Z,102703.19
2022-12-01T23:57:59.015Z,102694.28
